Time;durP1;ratioP1;P1;durP2;ratioP2;P2;SDS_P1;SDS_P2;PMS_P1;PMS_P2;Temp;Humidity;BMP_temperature;BMP_pressure;BME280_temperature;BME280_humidity;BME280_pressure;Samples;Min_cycle;Max_cycle;Signal;HPM_P1;HPM_P2
2022/11/12 00:01:56;;;;;;;46.60;25.97;;;;;;;9.19;100.00;95995.44;5019842;28;20207;-79
2022/11/12 00:04:22;;;;;;;44.60;23.77;;;;;;;9.26;100.00;95996.34;5021835;28;20227;-80
2022/11/12 00:06:49;;;;;;;41.20;22.77;;;;;;;9.35;100.00;95983.09;5026949;28;20191;-78
2022/11/12 00:09:16;;;;;;;36.17;21.37;;;;;;;9.41;100.00;95981.59;5022096;28;20202;-79
2022/11/12 00:11:43;;;;;;;39.03;21.07;;;;;;;9.41;100.00;95973.81;5037928;28;20194;-82
2022/11/12 00:14:11;;;;;;;37.57;21.07;;;;;;;9.46;100.00;95972.31;5033122;28;20202;-80
2022/11/12 00:16:37;;;;;;;37.10;22.17;;;;;;;9.45;100.00;95970.69;5026534;28;20556;-80
2022/11/12 00:19:04;;;;;;;43.67;23.53;;;;;;;9.45;100.00;95972.47;5022253;28;20521;-81
2022/11/12 00:21:31;;;;;;;38.37;22.50;;;;;;;9.51;100.00;95974.38;5028751;28;20195;-81
2022/11/12 00:23:58;;;;;;;41.23;22.10;;;;;;;9.47;100.00;95973.91;5019392;28;20647;-81
2022/11/12 00:26:25;;;;;;;43.83;23.57;;;;;;;9.45;100.00;95981.06;5022379;28;20195;-81
2022/11/12 00:28:51;;;;;;;47.10;22.97;;;;;;;9.36;100.00;95982.13;5023301;28;20269;-81
2022/11/12 00:31:19;;;;;;;46.03;24.40;;;;;;;9.29;100.00;95988.22;5019617;28;20195;-81
2022/11/12 00:33:46;;;;;;;38.70;22.67;;;;;;;9.31;100.00;95991.44;5019727;28;20630;-82
2022/11/12 00:36:13;;;;;;;41.37;22.17;;;;;;;9.32;100.00;95996.44;5025323;28;20195;-81
2022/11/12 00:38:40;;;;;;;39.53;21.97;;;;;;;9.34;100.00;95996.28;5016800;28;20763;-82
2022/11/12 00:41:07;;;;;;;37.97;22.13;;;;;;;9.12;100.00;95990.94;5022042;28;20198;-80
2022/11/12 00:43:33;;;;;;;42.47;22.93;;;;;;;9.15;100.00;95994.97;5019744;28;20200;-80
2022/11/12 00:46:00;;;;;;;40.50;22.57;;;;;;;8.84;100.00;95981.31;5017832;28;20273;-82
2022/11/12 00:48:28;;;;;;;42.97;22.93;;;;;;;8.80;100.00;95987.84;5023736;28;20191;-80
2022/11/12 00:51:00;;;;;;;40.07;21.23;;;;;;;8.88;100.00;95991.16;5019763;28;20807;-81
2022/11/12 00:53:27;;;;;;;45.33;24.17;;;;;;;8.95;100.00;95981.69;5021929;28;20296;-81
2022/11/12 00:56:00;;;;;;;41.30;22.40;;;;;;;8.94;100.00;95968.91;5041057;28;20607;-81
2022/11/12 00:58:28;;;;;;;38.23;21.80;;;;;;;9.13;100.00;95979.59;5038342;28;20218;-80
2022/11/12 01:00:55;;;;;;;42.17;23.37;;;;;;;9.17;100.00;95971.47;5043803;28;20229;-80
2022/11/12 01:03:22;;;;;;;42.17;23.07;;;;;;;9.21;100.00;95957.97;5036691;28;20575;-81
2022/11/12 01:05:50;;;;;;;41.47;23.47;;;;;;;9.21;100.00;95954.56;5031875;28;20317;-81
2022/11/12 01:08:17;;;;;;;40.43;22.37;;;;;;;9.24;100.00;95957.59;5033534;28;20187;-80
2022/11/12 01:10:44;;;;;;;40.70;24.00;;;;;;;9.26;100.00;95967.81;5033994;28;20201;-81
2022/11/12 01:13:11;;;;;;;42.47;23.30;;;;;;;9.23;100.00;95966.38;5034850;28;20265;-81
2022/11/12 01:15:41;;;;;;;41.53;23.50;;;;;;;9.16;100.00;95967.25;5027660;28;20636;-76
2022/11/12 01:18:08;;;;;;;39.33;22.87;;;;;;;9.10;100.00;95968.75;5018256;28;20231;-77
2022/11/12 01:20:37;;;;;;;40.87;23.20;;;;;;;9.06;100.00;95955.34;5021905;28;20203;-76
2022/11/12 01:23:05;;;;;;;42.03;22.97;;;;;;;9.12;100.00;95965.00;5019177;28;20201;-76
2022/11/12 01:25:32;;;;;;;41.43;23.93;;;;;;;9.15;100.00;95966.44;5017693;28;20638;-76
2022/11/12 01:27:59;;;;;;;42.23;23.67;;;;;;;9.21;100.00;95954.56;5019355;28;20195;-76
2022/11/12 01:30:26;;;;;;;43.23;23.67;;;;;;;9.30;100.00;95958.69;5020553;28;20204;-76
2022/11/12 01:32:52;;;;;;;41.70;23.43;;;;;;;9.28;100.00;95968.44;5022713;28;20203;-76
2022/11/12 01:35:19;;;;;;;45.67;22.67;;;;;;;9.27;100.00;95956.44;5019559;28;20199;-76
2022/11/12 01:37:46;;;;;;;40.63;22.30;;;;;;;9.31;100.00;95955.13;5016623;28;20226;-77
2022/11/12 01:40:15;;;;;;;39.03;23.27;;;;;;;9.36;100.00;95956.19;5014012;28;20213;-76
2022/11/12 01:42:42;;;;;;;39.37;22.30;;;;;;;9.39;100.00;95948.06;5019415;28;20199;-81
2022/11/12 01:45:15;;;;;;;38.50;21.87;;;;;;;9.40;100.00;95944.50;5040407;28;20664;-81
2022/11/12 01:47:44;;;;;;;41.10;23.30;;;;;;;9.39;100.00;95942.88;5041010;28;20210;-81
2022/11/12 01:50:17;;;;;;;33.20;20.00;;;;;;;9.47;100.00;95945.38;5024361;28;20305;-80
2022/11/12 01:52:49;;;;;;;37.00;20.47;;;;;;;9.50;100.00;95945.00;5028702;28;20636;-79
2022/11/12 01:55:21;;;;;;;39.47;21.60;;;;;;;9.50;100.00;95946.78;5039239;28;20198;-80
2022/11/12 01:57:53;;;;;;;41.00;22.83;;;;;;;9.38;100.00;95922.31;5032581;28;20207;-80
2022/11/12 02:00:20;;;;;;;41.03;24.13;;;;;;;9.41;100.00;95943.47;5043282;28;20190;-80
2022/11/12 02:02:53;;;;;;;41.13;23.40;;;;;;;9.31;100.00;95937.75;5029531;28;20197;-80
2022/11/12 02:05:22;;;;;;;44.03;23.97;;;;;;;9.21;100.00;95931.22;5037360;28;20227;-80
2022/11/12 02:07:50;;;;;;;39.07;22.27;;;;;;;9.12;100.00;95938.25;5040307;28;20649;-78
2022/11/12 02:10:19;;;;;;;44.23;23.70;;;;;;;9.06;100.00;95937.19;5021060;28;20202;-76
2022/11/12 02:15:31;;;;;;;40.37;22.23;;;;;;;8.98;100.00;95941.63;5031651;28;20770;-80
2022/11/12 02:17:58;;;;;;;40.47;23.17;;;;;;;9.03;100.00;95942.72;5035962;28;20226;-80
2022/11/12 02:20:25;;;;;;;41.87;22.57;;;;;;;9.06;100.00;95929.41;5019543;28;20207;-80
2022/11/12 02:22:53;;;;;;;38.27;22.87;;;;;;;9.15;100.00;95945.69;5041193;28;20647;-79
2022/11/12 02:25:22;;;;;;;42.03;21.93;;;;;;;9.12;100.00;95948.63;5036660;28;20206;-79
2022/11/12 02:27:53;;;;;;;40.53;21.60;;;;;;;9.12;100.00;95954.63;5031549;28;20349;-78
2022/11/12 02:30:30;;;;;;;43.13;22.67;;;;;;;9.16;100.00;95939.53;5029457;28;20669;-78
2022/11/12 02:32:57;;;;;;;38.07;21.03;;;;;;;9.18;100.00;95942.75;5033501;28;20198;-79
2022/11/12 02:35:24;;;;;;;37.57;21.80;;;;;;;9.17;100.00;95935.16;5036911;28;20206;-79
2022/11/12 02:37:52;;;;;;;41.87;22.10;;;;;;;9.16;100.00;95929.16;5027100;28;20719;-79
2022/11/12 02:40:19;;;;;;;38.17;22.10;;;;;;;9.22;100.00;95938.81;5025644;28;20210;-78
2022/11/12 02:42:46;;;;;;;42.77;22.10;;;;;;;9.23;100.00;95937.84;5031781;28;20199;-79
2022/11/12 02:45:13;;;;;;;38.77;21.07;;;;;;;9.30;100.00;95937.94;5028987;28;20199;-79
2022/11/12 02:47:40;;;;;;;34.60;20.70;;;;;;;9.34;100.00;95926.22;5045323;28;20221;-80
2022/11/12 02:50:08;;;;;;;38.43;21.10;;;;;;;9.34;100.00;95937.41;5028199;28;20203;-82
2022/11/12 02:52:35;;;;;;;37.47;20.97;;;;;;;9.25;100.00;95922.91;5020767;28;20248;-81
2022/11/12 02:55:03;;;;;;;37.47;20.63;;;;;;;9.31;100.00;95931.75;5031201;28;20245;-81
2022/11/12 02:57:30;;;;;;;41.50;21.13;;;;;;;9.35;100.00;95936.41;5030930;28;20831;-79
2022/11/12 02:59:57;;;;;;;35.87;20.33;;;;;;;9.46;100.00;95930.00;5029791;28;20205;-79
2022/11/12 03:02:23;;;;;;;32.70;18.90;;;;;;;9.46;100.00;95940.38;5028405;28;20747;-79
2022/11/12 03:04:50;;;;;;;33.93;20.40;;;;;;;9.43;100.00;95935.53;5034785;28;20238;-81
2022/11/12 03:07:17;;;;;;;27.47;16.30;;;;;;;9.38;100.00;95923.09;5029330;28;20199;-79
2022/11/12 03:09:44;;;;;;;23.20;14.00;;;;;;;9.41;100.00;95935.69;5032198;28;20201;-78
2022/11/12 03:12:12;;;;;;;18.73;11.63;;;;;;;9.37;100.00;95936.25;5032299;28;20199;-77
2022/11/12 03:14:39;;;;;;;20.57;12.30;;;;;;;9.39;100.00;95934.28;5020522;28;20199;-76
2022/11/12 03:17:05;;;;;;;23.30;12.00;;;;;;;9.34;100.00;95929.63;5017832;28;20200;-77
2022/11/12 03:19:32;;;;;;;19.70;11.00;;;;;;;9.44;100.00;95940.53;5017131;28;20265;-76
2022/11/12 03:21:59;;;;;;;17.73;10.93;;;;;;;9.36;100.00;95932.03;5021358;28;20195;-76
2022/11/12 03:24:27;;;;;;;18.23;10.33;;;;;;;9.22;100.00;95940.63;5015695;28;20207;-76
2022/11/12 03:26:53;;;;;;;15.17;9.33;;;;;;;9.14;100.00;95941.50;5015106;28;20208;-79
2022/11/12 03:29:21;;;;;;;17.00;8.93;;;;;;;9.05;100.00;95943.38;5028279;28;20645;-81
2022/11/12 03:31:48;;;;;;;13.27;8.80;;;;;;;8.90;100.00;95942.53;5033285;28;20254;-80
2022/11/12 03:34:15;;;;;;;12.77;8.73;;;;;;;8.92;100.00;95937.97;5039124;28;20214;-80
2022/11/12 03:36:42;;;;;;;11.83;8.20;;;;;;;8.94;100.00;95943.00;5021433;28;20203;-77
2022/11/12 03:39:08;;;;;;;11.70;8.10;;;;;;;8.94;100.00;95943.00;5016453;28;20230;-76
2022/11/12 03:41:35;;;;;;;11.70;8.30;;;;;;;8.98;100.00;95946.81;5017747;28;20198;-78
2022/11/12 03:44:02;;;;;;;13.87;8.20;;;;;;;8.99;100.00;95949.25;5020864;28;20214;-78
2022/11/12 03:46:30;;;;;;;19.53;8.10;;;;;;;8.97;100.00;95950.41;5018789;28;20195;-77
2022/11/12 03:48:58;;;;;;;10.03;7.27;;;;;;;8.94;100.00;95948.19;5020606;28;20582;-77
2022/11/12 03:51:24;;;;;;;11.47;7.33;;;;;;;8.98;100.00;95946.81;5018303;28;20622;-78
2022/11/12 03:53:51;;;;;;;11.33;6.57;;;;;;;9.02;100.00;95937.72;5017886;28;20199;-76
2022/11/12 03:56:18;;;;;;;12.60;6.70;;;;;;;8.99;100.00;95938.88;5023600;28;20262;-79
2022/11/12 03:58:45;;;;;;;10.43;6.67;;;;;;;8.80;100.00;95943.75;5031575;28;20723;-79
2022/11/12 04:01:11;;;;;;;12.47;6.60;;;;;;;8.76;100.00;95945.91;5028900;28;20209;-78
2022/11/12 04:03:40;;;;;;;8.90;6.33;;;;;;;8.72;100.00;95944.63;5015384;28;20210;-78
2022/11/12 04:08:51;;;;;;;11.67;7.03;;;;;;;8.67;100.00;95936.56;5022182;28;20198;-79
2022/11/12 04:11:17;;;;;;;11.10;7.37;;;;;;;8.67;100.00;95941.75;5035473;28;20210;-79
2022/11/12 04:13:46;;;;;;;13.23;7.73;;;;;;;8.72;100.00;95934.25;5027322;28;20198;-80
2022/11/12 04:21:50;;;;;;;11.97;6.50;;;;;;;8.71;100.00;95930.06;5028166;28;20672;-81
2022/11/12 04:27:03;;;;;;;12.47;7.10;;;;;;;8.59;100.00;95928.06;5026841;28;20570;-80
2022/11/12 04:32:14;;;;;;;10.77;6.53;;;;;;;8.48;100.00;95922.28;5036760;28;20290;-79
2022/11/12 04:34:43;;;;;;;10.43;6.80;;;;;;;8.44;100.00;95920.22;5027334;28;20199;-76
2022/11/12 04:37:09;;;;;;;10.63;7.10;;;;;;;8.49;100.00;95930.88;5016713;28;20195;-76
2022/11/12 04:39:36;;;;;;;11.50;7.57;;;;;;;8.52;100.00;95933.94;5014246;28;20674;-76
2022/11/12 04:45:00;;;;;;;11.23;7.30;;;;;;;8.51;100.00;95921.16;5014897;28;20293;-77
2022/11/12 04:47:29;;;;;;;11.10;7.40;;;;;;;8.39;100.00;95925.94;5020893;28;20213;-77
2022/11/12 04:49:58;;;;;;;14.53;8.47;;;;;;;8.25;100.00;95918.88;5016110;28;20214;-77
2022/11/12 04:52:26;;;;;;;14.50;9.60;;;;;;;8.11;100.00;95917.00;5021894;28;20580;-77
2022/11/12 04:54:53;;;;;;;17.33;10.60;;;;;;;8.17;100.00;95931.06;5013895;28;20203;-77
2022/11/12 04:57:21;;;;;;;14.73;11.23;;;;;;;8.17;100.00;95933.63;5015351;28;20195;-79
2022/11/12 04:59:48;;;;;;;15.93;11.63;;;;;;;8.16;100.00;95927.69;5037111;28;20903;-81
2022/11/12 05:02:15;;;;;;;14.47;11.13;;;;;;;8.15;100.00;95938.19;5037456;28;20735;-80
2022/11/12 05:04:41;;;;;;;13.70;10.60;;;;;;;8.16;100.00;95934.63;5034761;28;20226;-81
2022/11/12 05:07:10;;;;;;;14.87;10.77;;;;;;;8.14;100.00;95931.41;5037369;28;20567;-81
2022/11/12 05:09:38;;;;;;;16.37;10.53;;;;;;;8.23;100.00;95935.53;5041831;28;20210;-81
2022/11/12 05:12:05;;;;;;;15.67;10.47;;;;;;;8.16;100.00;95927.69;5039357;28;20676;-82
2022/11/12 05:14:31;;;;;;;16.47;10.83;;;;;;;8.31;100.00;95945.91;5033603;28;20199;-77
2022/11/12 05:16:58;;;;;;;16.47;10.10;;;;;;;8.31;100.00;95941.50;5019171;28;20207;-78
2022/11/12 05:19:25;;;;;;;14.47;10.90;;;;;;;8.37;100.00;95950.38;5021954;28;20291;-80
2022/11/12 05:22:07;;;;;;;15.77;10.00;;;;;;;8.45;100.00;95963.28;5029660;28;20206;-80
2022/11/12 05:24:37;;;;;;;15.93;8.83;;;;;;;8.39;100.00;95951.84;5021809;28;20210;-80
2022/11/12 05:27:06;;;;;;;12.80;9.00;;;;;;;8.40;100.00;95955.22;5037731;28;20257;-80
2022/11/12 05:29:33;;;;;;;11.47;7.83;;;;;;;8.46;100.00;95959.72;5040222;28;20201;-80
2022/11/12 05:32:00;;;;;;;12.37;7.80;;;;;;;8.50;100.00;95966.97;5036770;28;20217;-80
2022/11/12 05:34:27;;;;;;;14.00;7.97;;;;;;;8.60;100.00;95971.91;5047753;28;20559;-81
2022/11/12 05:36:54;;;;;;;14.10;8.13;;;;;;;8.65;99.94;95964.44;5034266;28;20878;-76
2022/11/12 05:39:21;;;;;;;15.60;8.10;;;;;;;8.67;100.00;95959.09;5020743;28;20557;-76
2022/11/12 05:41:50;;;;;;;13.07;7.90;;;;;;;8.73;98.60;95959.19;5018037;28;20207;-76
2022/11/12 05:44:17;;;;;;;12.37;8.00;;;;;;;8.81;98.79;95964.31;5020459;28;20206;-78
2022/11/12 05:46:44;;;;;;;12.77;8.17;;;;;;;8.86;98.48;95962.00;5017885;28;20207;-78
2022/11/12 05:49:11;;;;;;;13.33;8.67;;;;;;;8.86;98.11;95972.38;5018537;28;20215;-77
2022/11/12 05:51:38;;;;;;;13.53;9.20;;;;;;;8.89;97.79;95972.03;5019884;28;20200;-78
2022/11/12 05:54:05;;;;;;;17.77;9.13;;;;;;;8.88;98.56;95967.84;5022197;28;20670;-77
2022/11/12 05:56:33;;;;;;;15.93;9.83;;;;;;;8.96;97.87;95965.16;5020717;28;20200;-77
2022/11/12 05:59:01;;;;;;;16.50;9.77;;;;;;;9.01;98.29;95975.81;5016167;28;20220;-77
2022/11/12 06:01:28;;;;;;;17.33;9.53;;;;;;;8.98;96.84;95972.75;5017828;28;20591;-78
2022/11/12 06:03:55;;;;;;;13.57;9.43;;;;;;;8.96;96.63;95982.50;5018416;28;20212;-78
2022/11/12 06:06:22;;;;;;;14.97;9.63;;;;;;;8.99;97.65;95979.56;5018754;28;20191;-77
2022/11/12 06:08:49;;;;;;;18.37;9.50;;;;;;;9.05;97.26;95981.47;5016371;28;20200;-77
2022/11/12 06:11:16;;;;;;;16.40;9.57;;;;;;;8.99;97.88;95969.19;5017265;28;20195;-77
2022/11/12 06:13:43;;;;;;;12.60;8.53;;;;;;;9.00;97.59;95986.38;5016105;28;20643;-77
2022/11/12 06:16:11;;;;;;;15.67;9.10;;;;;;;9.05;96.93;95989.25;5016521;28;20195;-77
2022/11/12 06:18:37;;;;;;;19.80;10.87;;;;;;;9.08;97.68;95991.47;5018648;28;20674;-77
2022/11/12 06:21:21;;;;;;;16.67;10.00;;;;;;;9.07;96.30;95987.25;5020050;28;20658;-77
2022/11/12 06:23:53;;;;;;;14.53;10.10;;;;;;;9.11;96.68;95991.94;5015614;28;20247;-77
2022/11/12 06:26:20;;;;;;;18.63;9.67;;;;;;;9.16;96.64;95990.59;5021757;28;20711;-79
2022/11/12 06:28:48;;;;;;;17.40;10.10;;;;;;;9.19;95.92;95988.47;5017419;28;20203;-78
2022/11/12 06:31:17;;;;;;;20.30;10.83;;;;;;;9.15;96.21;95987.19;5017901;28;20203;-77
2022/11/12 06:33:45;;;;;;;14.60;10.00;;;;;;;9.21;96.25;95986.50;5017563;28;20213;-77
2022/11/12 06:36:14;;;;;;;16.70;10.13;;;;;;;9.26;96.04;95981.59;5016409;28;20823;-77
2022/11/12 06:38:41;;;;;;;20.50;10.60;;;;;;;9.23;96.66;95978.53;5017800;28;20751;-77
2022/11/12 06:41:10;;;;;;;15.07;9.87;;;;;;;9.26;95.84;95984.19;5018511;28;20659;-77
2022/11/12 06:43:37;;;;;;;14.63;10.27;;;;;;;9.25;96.23;95992.13;5023109;28;20603;-77
2022/11/12 06:46:06;;;;;;;22.30;10.43;;;;;;;9.23;95.50;96005.28;5016195;28;20195;-76
2022/11/12 06:48:34;;;;;;;19.03;9.90;;;;;;;9.30;95.50;96005.38;5020967;28;20191;-78
2022/11/12 06:51:07;;;;;;;15.80;10.33;;;;;;;9.34;95.17;96004.06;5021340;28;20206;-77
2022/11/12 06:53:34;;;;;;;16.90;9.83;;;;;;;9.27;94.95;95997.94;5019962;28;20226;-77
2022/11/12 06:56:05;;;;;;;15.10;9.73;;;;;;;9.31;95.74;96002.63;5021561;28;20202;-77
2022/11/12 06:58:32;;;;;;;21.80;11.17;;;;;;;9.46;95.43;96003.47;5018648;28;20230;-77
2022/11/12 07:01:05;;;;;;;18.07;10.43;;;;;;;9.49;95.10;95997.91;5015448;28;20202;-77
2022/11/12 07:03:32;;;;;;;21.30;11.13;;;;;;;9.61;95.33;96000.84;5017293;28;20608;-77
2022/11/12 07:06:03;;;;;;;18.50;10.30;;;;;;;9.62;94.61;95990.31;5016542;28;20253;-76
2022/11/12 07:08:30;;;;;;;17.20;10.87;;;;;;;9.68;93.95;95992.19;5019115;28;20187;-77
2022/11/12 07:10:57;;;;;;;19.00;11.60;;;;;;;9.67;94.19;95995.75;5024359;28;20209;-82
2022/11/12 07:13:24;;;;;;;16.40;11.00;;;;;;;9.74;93.97;96001.03;5029536;28;20234;-79
2022/11/12 07:15:51;;;;;;;17.77;10.43;;;;;;;9.81;94.63;95988.16;5016798;28;20586;-80
2022/11/12 07:18:18;;;;;;;16.90;10.20;;;;;;;9.86;94.93;95994.41;5034305;28;20210;-79
2022/11/12 07:20:45;;;;;;;20.47;11.30;;;;;;;9.97;93.97;95991.38;5038044;28;20221;-79
2022/11/12 07:23:13;;;;;;;18.70;10.70;;;;;;;10.03;93.79;95980.25;5029841;28;20199;-77
2022/11/12 07:25:39;;;;;;;21.13;10.47;;;;;;;10.14;92.65;95990.19;5016916;28;20203;-78
2022/11/12 07:28:06;;;;;;;16.43;10.17;;;;;;;10.13;92.93;95988.59;5018668;28;20238;-77
2022/11/12 07:30:33;;;;;;;15.33;9.67;;;;;;;10.16;93.15;95993.41;5026327;28;20198;-77
2022/11/12 07:33:00;;;;;;;15.20;9.10;;;;;;;10.18;92.30;95986.25;5023759;28;20206;-79
2022/11/12 07:35:27;;;;;;;18.50;10.00;;;;;;;10.14;91.61;95987.59;5026351;28;20259;-80
2022/11/12 07:37:53;;;;;;;14.17;8.73;;;;;;;9.98;91.59;95989.56;5030820;28;20230;-80
2022/11/12 07:40:22;;;;;;;13.07;8.17;;;;;;;9.99;90.35;95994.56;5024801;28;20273;-80
2022/11/12 07:42:49;;;;;;;13.07;8.77;;;;;;;10.00;91.13;95995.38;5030630;28;20221;-81
2022/11/12 07:45:16;;;;;;;12.73;8.13;;;;;;;10.06;91.60;95985.09;5025588;28;20648;-81
2022/11/12 07:47:42;;;;;;;15.20;8.30;;;;;;;9.97;90.49;95987.97;5026496;28;20213;-77
2022/11/12 07:50:10;;;;;;;15.80;8.83;;;;;;;10.01;90.01;95995.22;5016856;28;20198;-77
2022/11/12 07:52:36;;;;;;;15.63;9.33;;;;;;;10.03;89.37;95989.81;5020420;28;20203;-80
2022/11/12 07:55:05;;;;;;;20.07;10.77;;;;;;;10.10;90.63;95991.50;5032301;28;20260;-80
2022/11/12 07:57:34;;;;;;;17.77;10.83;;;;;;;10.19;89.71;95990.44;5031984;28;20588;-81
2022/11/12 08:00:05;;;;;;;16.17;9.97;;;;;;;10.07;89.24;95991.09;5033427;28;20219;-80
2022/11/12 08:02:32;;;;;;;16.93;11.43;;;;;;;9.97;89.86;96001.75;5031717;28;20194;-81
2022/11/12 08:04:59;;;;;;;16.37;10.43;;;;;;;10.04;89.92;96009.63;5023769;28;20235;-82
2022/11/12 08:07:26;;;;;;;15.03;9.20;;;;;;;10.14;89.37;96002.38;5038836;28;20207;-81
2022/11/12 08:09:53;;;;;;;17.90;9.60;;;;;;;10.17;89.45;95995.03;5023362;28;20203;-81
2022/11/12 08:12:20;;;;;;;17.87;9.43;;;;;;;10.23;89.05;96002.09;5029556;28;20206;-81
2022/11/12 08:14:48;;;;;;;15.70;9.40;;;;;;;10.13;89.58;96001.56;5033301;28;20202;-82
2022/11/12 08:17:14;;;;;;;21.90;9.10;;;;;;;10.17;89.18;96005.44;5030741;28;20205;-79
2022/11/12 08:19:41;;;;;;;13.47;8.50;;;;;;;10.12;89.25;96014.72;5027824;28;20230;-81
2022/11/12 08:22:08;;;;;;;14.77;8.83;;;;;;;10.00;90.45;96013.56;5030149;28;20228;-80
2022/11/12 08:24:35;;;;;;;15.50;8.70;;;;;;;10.17;88.85;96007.22;5018410;28;20199;-82
2022/11/12 08:27:02;;;;;;;13.77;8.70;;;;;;;10.21;88.43;96005.88;5026580;28;20698;-80
2022/11/12 08:29:28;;;;;;;13.47;8.40;;;;;;;10.12;87.74;95999.13;5035726;28;20202;-80
2022/11/12 08:31:56;;;;;;;14.07;8.07;;;;;;;10.25;87.91;96010.50;5026651;28;20244;-80
2022/11/12 08:34:23;;;;;;;14.80;8.30;;;;;;;10.24;88.80;96011.50;5036774;28;20202;-81
2022/11/12 08:36:50;;;;;;;16.50;8.67;;;;;;;10.30;87.65;96011.78;5026398;28;20225;-80
2022/11/12 08:39:17;;;;;;;20.33;8.23;;;;;;;10.42;86.99;96011.09;5031256;28;20229;-81
2022/11/12 08:41:43;;;;;;;14.10;8.30;;;;;;;10.44;86.78;96010.94;5026645;28;20194;-80
2022/11/12 08:44:10;;;;;;;18.10;8.07;;;;;;;10.34;87.25;96008.63;5038656;28;20277;-82
2022/11/12 08:46:37;;;;;;;13.43;7.13;;;;;;;10.34;87.22;96010.41;5037666;28;20203;-80
2022/11/12 08:49:05;;;;;;;13.90;7.47;;;;;;;10.33;85.84;96014.00;5038522;28;20201;-81
2022/11/12 08:51:32;;;;;;;14.20;6.90;;;;;;;10.24;86.62;96010.72;5034644;28;20198;-81
2022/11/12 08:53:59;;;;;;;11.20;6.50;;;;;;;10.28;85.94;96011.94;5038189;28;20213;-81
2022/11/12 08:56:26;;;;;;;11.50;6.90;;;;;;;10.29;86.73;96007.56;5032411;28;20209;-81
2022/11/12 08:58:52;;;;;;;11.30;7.00;;;;;;;10.22;86.86;96010.06;5025892;28;20219;-78
2022/11/12 09:01:19;;;;;;;9.73;6.80;;;;;;;10.21;86.33;96018.88;5024500;28;20191;-78
2022/11/12 09:03:46;;;;;;;8.20;5.90;;;;;;;10.23;86.07;96011.69;5018148;28;20260;-78
2022/11/12 09:06:14;;;;;;;9.53;5.60;;;;;;;10.37;85.75;96010.03;5018107;28;20207;-77
2022/11/12 09:08:41;;;;;;;10.53;5.97;;;;;;;10.41;85.39;96006.09;5021371;28;20207;-78
2022/11/12 09:11:08;;;;;;;8.77;5.80;;;;;;;10.40;85.72;95999.28;5020243;28;20202;-78
2022/11/12 09:13:35;;;;;;;9.93;6.47;;;;;;;10.42;85.30;96008.50;5019441;28;20199;-78
2022/11/12 09:16:04;;;;;;;8.57;6.30;;;;;;;10.42;84.69;96000.69;5021055;28;20195;-78
2022/11/12 09:18:32;;;;;;;12.07;6.50;;;;;;;10.55;84.26;96003.47;5018133;28;20256;-78
2022/11/12 09:21:03;;;;;;;10.27;6.27;;;;;;;10.48;84.72;96004.34;5021684;28;20201;-78
2022/11/12 09:23:34;;;;;;;8.17;5.63;;;;;;;10.42;84.67;95998.09;5024189;28;20202;-77
2022/11/12 09:26:02;;;;;;;9.37;6.00;;;;;;;10.40;85.36;96012.28;5016026;28;20203;-77
2022/11/12 09:28:28;;;;;;;11.67;5.73;;;;;;;10.48;84.55;96014.75;5018602;28;20206;-78
2022/11/12 09:30:55;;;;;;;11.57;6.10;;;;;;;10.53;83.91;95994.25;5021866;28;20213;-78
2022/11/12 09:33:24;;;;;;;13.30;6.30;;;;;;;10.60;83.38;96010.69;5020171;28;20728;-78
2022/11/12 09:35:52;;;;;;;13.40;6.37;;;;;;;10.63;83.00;96015.53;5018577;28;20195;-78
2022/11/12 09:38:21;;;;;;;11.33;6.13;;;;;;;10.49;83.42;96008.59;5018793;28;20204;-78
2022/11/12 09:41:19;;;;;;;7.93;5.70;;;;;;;10.35;83.97;96005.03;5022273;28;20663;-78
2022/11/12 09:43:50;;;;;;;8.50;5.87;;;;;;;10.38;84.29;96007.28;5022373;28;20198;-77
2022/11/12 09:46:29;;;;;;;8.70;6.10;;;;;;;10.44;84.56;96011.75;5026035;28;20266;-81
2022/11/12 09:49:02;;;;;;;9.30;6.13;;;;;;;10.37;84.88;95991.84;5020741;28;20207;-79
2022/11/12 09:51:34;;;;;;;8.00;5.97;;;;;;;10.44;83.64;96016.94;5020594;28;20188;-78
2022/11/12 09:54:06;;;;;;;10.43;5.30;;;;;;;10.39;82.98;96013.28;5019913;28;20191;-79
2022/11/12 09:56:34;;;;;;;7.73;5.50;;;;;;;10.41;83.93;96008.69;5020955;28;20206;-78
2022/11/12 09:59:01;;;;;;;11.23;6.30;;;;;;;10.38;83.85;96014.25;5017724;28;20202;-77
2022/11/12 10:01:40;;;;;;;11.60;5.93;;;;;;;10.41;85.15;96008.69;5021841;28;20202;-78
2022/11/12 10:04:24;;;;;;;11.90;5.13;;;;;;;10.48;83.08;95997.38;5020217;28;20219;-78
2022/11/12 10:07:00;;;;;;;5.50;4.50;;;;;;;10.59;82.11;96007.28;5021541;28;20207;-78
2022/11/12 10:09:32;;;;;;;6.83;4.10;;;;;;;10.69;80.18;95997.41;5021685;28;20205;-79
2022/11/12 10:12:33;;;;;;;5.90;4.20;;;;;;;10.66;78.75;96004.75;5021492;28;20616;-78
2022/11/12 10:18:09;;;;;;;8.33;4.03;;;;;;;10.84;79.46;96007.75;4999761;28;20249;-77
2022/11/12 10:20:43;;;;;;;7.43;4.70;;;;;;;10.98;79.03;96009.47;5020649;28;20704;-78
2022/11/12 10:23:17;;;;;;;5.47;4.03;;;;;;;10.98;79.14;96012.09;5021589;28;20191;-78
2022/11/12 10:25:47;;;;;;;7.80;4.57;;;;;;;10.97;79.37;96009.66;5018301;28;20683;-77
2022/11/12 10:28:25;;;;;;;8.37;5.63;;;;;;;10.93;80.86;96014.44;5017583;28;20294;-78
2022/11/12 10:30:55;;;;;;;10.30;6.10;;;;;;;10.81;83.06;96015.91;5024314;28;20278;-79
2022/11/12 10:33:22;;;;;;;9.77;5.57;;;;;;;10.83;83.13;96012.13;5017290;28;20198;-77
2022/11/12 10:35:49;;;;;;;7.50;5.93;;;;;;;10.77;84.34;96012.88;5020552;28;20572;-78
2022/11/12 10:38:24;;;;;;;9.13;6.13;;;;;;;10.85;84.88;96008.56;5019738;28;20201;-78
2022/11/12 10:40:51;;;;;;;8.57;6.00;;;;;;;10.73;85.59;96014.25;5019430;28;20203;-78
2022/11/12 10:43:24;;;;;;;8.63;5.90;;;;;;;10.48;86.37;96004.34;5020360;28;20210;-78
2022/11/12 10:45:51;;;;;;;8.77;5.80;;;;;;;10.39;86.83;96001.06;5027653;28;20214;-81
2022/11/12 10:48:23;;;;;;;11.37;6.20;;;;;;;10.27;87.79;96006.94;5022030;28;20202;-81
2022/11/12 10:50:50;;;;;;;13.60;6.23;;;;;;;10.18;89.13;96007.06;5037790;28;20217;-81
2022/11/12 10:53:32;;;;;;;11.13;6.40;;;;;;;10.06;89.75;96003.25;5025850;28;20202;-81
2022/11/12 10:56:00;;;;;;;9.87;6.40;;;;;;;10.09;90.01;96002.91;5031774;28;20210;-81
2022/11/12 10:58:29;;;;;;;10.33;6.23;;;;;;;10.14;89.99;95998.00;5034932;28;20199;-83
2022/11/12 11:00:59;;;;;;;10.73;6.63;;;;;;;10.14;90.79;96011.00;5028638;28;20231;-78
2022/11/12 11:03:29;;;;;;;9.27;6.20;;;;;;;10.05;91.80;96000.84;5018744;28;20198;-78
2022/11/12 11:05:59;;;;;;;9.83;6.00;;;;;;;9.97;93.38;96006.13;5022472;28;20238;-79
2022/11/12 11:08:38;;;;;;;8.90;5.80;;;;;;;10.04;92.64;96007.81;5030913;28;20198;-81
2022/11/12 11:11:27;;;;;;;11.60;6.30;;;;;;;10.11;92.32;96005.31;5028423;28;20210;-81
2022/11/12 11:13:56;;;;;;;10.20;6.57;;;;;;;10.17;92.13;96002.84;5023902;28;20252;-82
2022/11/12 11:16:25;;;;;;;13.77;6.30;;;;;;;10.16;91.66;96001.22;5026800;28;20708;-81
2022/11/12 11:18:55;;;;;;;9.53;6.10;;;;;;;10.15;90.85;95999.63;5032574;28;20203;-81
2022/11/12 11:22:02;;;;;;;12.50;6.67;;;;;;;10.16;90.60;95992.59;5030852;28;20273;-81
2022/11/12 11:24:39;;;;;;;14.93;6.40;;;;;;;10.11;90.13;95998.31;5029858;28;20229;-81
2022/11/12 11:27:17;;;;;;;11.00;6.50;;;;;;;10.22;89.86;95991.88;5036225;28;20641;-81
2022/11/12 11:30:08;;;;;;;10.53;6.33;;;;;;;10.36;89.56;95993.63;5027747;28;20634;-78
2022/11/12 11:32:57;;;;;;;9.53;6.03;;;;;;;10.44;89.42;95996.16;5039416;28;20269;-81
2022/11/12 11:35:31;;;;;;;8.03;5.37;;;;;;;10.56;88.77;96009.47;5042120;28;20544;-81
2022/11/12 11:38:15;;;;;;;6.63;4.77;;;;;;;10.50;87.32;96002.41;5046222;28;20197;-83
2022/11/12 11:40:51;;;;;;;10.07;5.83;;;;;;;10.52;87.75;96003.81;5023430;28;20688;-82
2022/11/12 11:43:40;;;;;;;7.23;5.27;;;;;;;10.47;87.14;96006.19;5039953;28;20232;-81
2022/11/12 11:46:24;;;;;;;8.30;5.20;;;;;;;10.59;87.26;96009.09;5027836;28;20200;-79
2022/11/12 11:49:04;;;;;;;8.57;5.80;;;;;;;10.61;87.21;96005.31;5021860;28;20198;-79
2022/11/12 11:51:42;;;;;;;7.10;5.13;;;;;;;10.49;87.97;95988.59;5017896;28;20279;-79
2022/11/12 11:54:20;;;;;;;10.37;5.90;;;;;;;10.49;88.71;96000.78;5022903;28;20219;-78
2022/11/12 11:56:49;;;;;;;8.20;5.30;;;;;;;10.54;88.86;96009.63;5020546;28;20212;-77